Time;durP1;ratioP1;P1;durP2;ratioP2;P2;SDS_P1;SDS_P2;PMS_P1;PMS_P2;Temp;Humidity;BMP_temperature;BMP_pressure;BME280_temperature;BME280_humidity;BME280_pressure;Samples;Min_cycle;Max_cycle;Signal;HPM_P1;HPM_P2
2020/12/10 00:01:17;;;;;;;;;45.40;35.40;;;;;6.01;48.23;98288.56;6162280;28;98185;-57
2020/12/10 00:04:19;;;;;;;;;39.00;32.80;;;;;6.14;48.23;98330.56;6164644;28;97447;-57
2020/12/10 00:07:24;;;;;;;;;42.00;33.50;;;;;5.96;48.81;98307.09;6187462;28;97394;-57
2020/12/10 00:10:25;;;;;;;;;42.00;35.00;;;;;6.16;48.14;98301.72;6186954;28;96801;-57
2020/12/10 00:13:26;;;;;;;;;47.25;36.25;;;;;6.33;47.86;98307.50;6176116;28;97215;-57
2020/12/10 00:16:28;;;;;;;;;44.00;35.25;;;;;5.57;48.48;98184.09;6162604;28;97535;-57
2020/12/10 00:19:30;;;;;;;;;37.00;32.00;;;;;6.27;48.19;98294.94;6161557;28;96990;-57
2020/12/10 00:22:34;;;;;;;;;44.00;34.20;;;;;6.15;48.29;98299.28;6165990;28;98483;-57
2020/12/10 00:25:35;;;;;;;;;40.80;31.80;;;;;6.05;48.33;98300.53;6186466;28;97228;-57
2020/12/10 00:28:37;;;;;;;;;45.00;35.40;;;;;6.04;49.32;98290.84;6186516;28;96684;-57
2020/12/10 00:31:38;;;;;;;;;47.00;35.80;;;;;5.99;48.67;98297.84;6184905;28;97438;-57
2020/12/10 00:34:41;;;;;;;;;43.40;33.60;;;;;6.07;48.59;98298.47;6185485;28;96528;-57
2020/12/10 00:37:43;;;;;;;;;44.40;35.00;;;;;5.67;49.17;98299.44;6185452;28;98473;-57
2020/12/10 00:40:45;;;;;;;;;43.40;34.40;;;;;5.60;49.57;98298.63;6185888;28;97599;-57
2020/12/10 00:43:46;;;;;;;;;43.00;34.00;;;;;5.06;50.71;98291.53;6175307;28;97401;-57
2020/12/10 00:46:47;;;;;;;;;40.00;33.00;;;;;5.01;51.09;98290.50;6160617;28;97211;-57
2020/12/10 00:49:49;;;;;;;;;41.00;34.00;;;;;4.99;50.87;98289.84;6177568;28;96660;-57
2020/12/10 00:52:51;;;;;;;;;41.00;33.00;;;;;4.84;51.29;98298.03;6184674;28;97174;-57
2020/12/10 00:55:56;;;;;;;;;40.00;35.00;;;;;4.83;51.46;98293.72;6183711;28;98447;-57
2020/12/10 00:58:58;;;;;;;;;46.00;36.80;;;;;4.88;51.46;98291.28;6183405;28;97152;-57
2020/12/10 01:01:59;;;;;;;;;40.60;31.00;;;;;4.79;51.90;98293.28;6159844;28;96811;-57
2020/12/10 01:05:01;;;;;;;;;46.00;35.00;;;;;4.78;51.88;98290.81;6160313;28;97134;-57
2020/12/10 01:08:02;;;;;;;;;43.25;36.00;;;;;4.94;51.45;98287.78;6160092;28;98512;-57
2020/12/10 01:11:03;;;;;;;;;41.60;32.00;;;;;4.86;51.50;98274.63;6174868;28;96757;-57
2020/12/10 01:14:05;;;;;;;;;44.40;36.00;;;;;4.83;51.46;98280.38;6183864;28;96924;-57
2020/12/10 01:17:07;;;;;;;;;40.40;34.20;;;;;5.10;50.95;98274.06;6184894;28;97088;-57
2020/12/10 01:20:09;;;;;;;;;42.40;35.00;;;;;5.15;51.05;98266.28;6184683;28;97554;-57
2020/12/10 01:23:10;;;;;;;;;45.50;35.00;;;;;5.29;50.69;98260.94;6183872;28;97103;-57
2020/12/10 01:26:12;;;;;;;;;45.25;35.50;;;;;5.28;50.72;98257.44;6183829;28;97016;-57
2020/12/10 01:29:14;;;;;;;;;44.20;34.60;;;;;5.53;50.10;98258.50;6160379;28;96925;-57
2020/12/10 01:32:16;;;;;;;;;40.00;34.25;;;;;5.46;49.96;98259.56;6160035;28;98513;-57
2020/12/10 01:35:17;;;;;;;;;45.40;36.00;;;;;5.24;50.36;98230.31;6173168;28;97505;-57
2020/12/10 01:38:19;;;;;;;;;45.00;35.00;;;;;5.22;50.69;98263.63;6183621;28;96862;-57
2020/12/10 01:41:25;;;;;;;;;44.75;35.00;;;;;5.04;51.12;98269.53;6184259;28;98609;-56
2020/12/10 01:44:27;;;;;;;;;44.50;34.75;;;;;4.76;51.54;98245.63;6183531;28;96969;-57
2020/12/10 01:47:31;;;;;;;;;40.60;33.60;;;;;4.98;51.50;98265.03;6183138;28;97418;-57
2020/12/10 01:50:32;;;;;;;;;35.00;30.50;;;;;4.84;51.86;98254.50;6183566;28;97142;-57
2020/12/10 01:53:34;;;;;;;;;38.60;33.60;;;;;4.84;51.95;98243.81;6177382;28;97642;-57
2020/12/10 01:56:36;;;;;;;;;40.00;32.00;;;;;4.72;52.21;98235.56;6164001;28;98015;-56
2020/12/10 01:59:37;;;;;;;;;43.75;33.00;;;;;4.71;52.13;98232.06;6163940;28;97217;-56
2020/12/10 02:02:39;;;;;;;;;40.00;32.20;;;;;4.92;51.91;98231.09;6163991;28;96563;-56
2020/12/10 02:05:47;;;;;;;;;38.20;32.80;;;;;4.58;52.81;98216.00;6163771;28;97376;-56
2020/12/10 02:08:48;;;;;;;;;42.20;32.60;;;;;4.44;52.80;98216.16;6163239;28;97306;-56
2020/12/10 02:11:53;;;;;;;;;41.20;35.00;;;;;4.53;53.00;98209.59;6163361;28;97209;-56
2020/12/10 02:14:54;;;;;;;;;38.00;32.00;;;;;4.28;52.92;98175.44;6182340;28;98084;-56
2020/12/10 02:17:56;;;;;;;;;42.80;34.80;;;;;4.66;52.69;98210.47;6187599;28;98587;-56
2020/12/10 02:20:57;;;;;;;;;44.50;33.00;;;;;4.85;52.29;98213.38;6187919;28;97472;-56
2020/12/10 02:24:01;;;;;;;;;44.75;35.50;;;;;4.98;52.21;98210.78;6162772;28;98623;-56
2020/12/10 02:27:03;;;;;;;;;43.80;33.40;;;;;5.15;51.61;98217.38;6173233;28;97473;-56
2020/12/10 02:30:23;;;;;;;;;45.00;35.60;;;;;5.17;51.68;98192.09;6187855;28;97105;-56
2020/12/10 02:33:24;;;;;;;;;46.60;35.00;;;;;5.13;51.51;98196.19;6187472;28;97003;-56
2020/12/10 02:36:26;;;;;;;;;39.80;33.00;;;;;5.34;51.06;98208.53;6186985;28;96935;-56
2020/12/10 02:39:27;;;;;;;;;45.00;34.00;;;;;5.32;51.18;98202.59;6187114;28;97057;-56
2020/12/10 02:42:29;;;;;;;;;38.00;32.20;;;;;5.08;51.08;98179.94;6183339;28;97191;-56
2020/12/10 02:45:31;;;;;;;;;38.00;31.00;;;;;5.14;51.24;98194.34;6162127;28;96852;-56
2020/12/10 02:48:34;;;;;;;;;37.80;32.00;;;;;5.22;51.69;98194.16;6164062;28;97234;-56
2020/12/10 02:51:35;;;;;;;;;40.80;34.00;;;;;4.87;51.87;98169.44;6180670;28;98049;-56
2020/12/10 02:54:36;;;;;;;;;43.00;34.40;;;;;5.21;51.72;98192.50;6162486;28;97037;-56
2020/12/10 02:57:38;;;;;;;;;44.75;33.75;;;;;5.14;51.73;98189.81;6162392;28;96615;-56
2020/12/10 03:00:39;;;;;;;;;41.20;33.60;;;;;5.42;50.96;98186.97;6163120;28;97680;-56
2020/12/10 03:03:40;;;;;;;;;41.40;33.60;;;;;5.47;51.22;98186.34;6162560;28;96432;-56
2020/12/10 03:06:42;;;;;;;;;43.40;34.20;;;;;5.63;50.53;98184.06;6162430;28;97069;-56
2020/12/10 03:09:44;;;;;;;;;41.40;32.40;;;;;5.66;50.42;98174.81;6162529;28;97134;-56
2020/12/10 03:12:45;;;;;;;;;48.40;34.80;;;;;5.53;50.47;98169.47;6176303;28;97284;-56
2020/12/10 03:15:46;;;;;;;;;44.00;33.60;;;;;5.44;51.46;98165.34;6170446;28;97993;-56
2020/12/10 03:18:48;;;;;;;;;44.00;34.50;;;;;5.62;50.55;98154.84;6163258;28;97467;-56
2020/12/10 03:21:49;;;;;;;;;39.60;32.60;;;;;5.43;50.59;98119.09;6162795;28;97552;-56
2020/12/10 03:24:51;;;;;;;;;39.00;32.00;;;;;5.73;50.37;98159.56;6161990;28;96800;-56
2020/12/10 03:27:52;;;;;;;;;39.80;31.00;;;;;5.53;50.94;98148.06;6161834;28;97437;-56
2020/12/10 03:30:53;;;;;;;;;45.40;33.40;;;;;5.56;50.50;98153.03;6160972;28;97420;-56
2020/12/10 03:33:55;;;;;;;;;37.60;30.00;;;;;5.37;51.49;98149.34;6182742;28;96985;-56
2020/12/10 03:36:58;;;;;;;;;38.33;32.00;;;;;5.51;50.91;98150.97;6186006;28;97329;-56
2020/12/10 03:39:59;;;;;;;;;42.00;33.00;;;;;5.64;50.64;98145.59;6186473;28;97458;-56
2020/12/10 03:43:01;;;;;;;;;44.50;33.00;;;;;5.60;50.95;98140.88;6185017;28;97445;-56
2020/12/10 03:46:02;;;;;;;;;39.20;33.00;;;;;5.66;50.94;98132.88;6186881;28;96464;-56
2020/12/10 03:49:05;;;;;;;;;37.60;30.00;;;;;5.56;50.91;98131.63;6185151;28;97394;-56
2020/12/10 03:52:06;;;;;;;;;41.00;31.00;;;;;5.60;50.69;98127.50;6185536;28;96906;-56
2020/12/10 03:55:08;;;;;;;;;44.67;34.67;;;;;5.78;50.60;98122.31;6185714;28;97288;-56
2020/12/10 03:58:09;;;;;;;;;43.60;33.00;;;;;5.80;50.21;98104.22;6184249;28;96944;-56
2020/12/10 04:01:11;;;;;;;;;35.50;31.75;;;;;5.63;50.23;98095.81;6183765;28;96823;-56
2020/12/10 04:04:13;;;;;;;;;41.40;32.60;;;;;5.52;50.65;98083.09;6184688;28;97365;-56
2020/12/10 04:07:14;;;;;;;;;40.60;32.00;;;;;5.55;50.73;98122.78;6185231;28;97509;-56
2020/12/10 04:10:15;;;;;;;;;42.00;32.60;;;;;5.33;52.00;98128.56;6173160;28;97410;-56
2020/12/10 04:13:17;;;;;;;;;36.60;32.00;;;;;5.37;51.39;98133.31;6161163;28;97160;-56
2020/12/10 04:16:18;;;;;;;;;39.80;30.00;;;;;5.21;51.52;98123.03;6160901;28;97710;-56
2020/12/10 04:19:20;;;;;;;;;34.50;28.50;;;;;5.26;51.69;98115.22;6174729;28;96503;-56
2020/12/10 04:22:22;;;;;;;;;30.20;26.60;;;;;5.27;51.67;98121.38;6184966;28;97436;-56
2020/12/10 04:25:23;;;;;;;;;35.50;29.50;;;;;5.06;51.71;98082.34;6185604;28;97395;-56
2020/12/10 04:28:25;;;;;;;;;30.40;28.20;;;;;5.29;51.15;98104.09;6183729;28;96644;-56
2020/12/10 04:31:27;;;;;;;;;34.75;28.75;;;;;5.27;51.65;98110.69;6159907;28;97805;-56
2020/12/10 04:34:30;;;;;;;;;39.00;31.00;;;;;5.47;51.40;98098.13;6160429;28;97052;-56
2020/12/10 04:37:32;;;;;;;;;37.00;30.00;;;;;5.46;50.97;98088.47;6172609;28;97054;-56
2020/12/10 04:40:36;;;;;;;;;38.00;32.00;;;;;5.59;50.77;98093.78;6184868;28;97414;-56
2020/12/10 04:43:38;;;;;;;;;32.00;28.60;;;;;5.35;50.83;98067.72;6184042;28;97707;-56
2020/12/10 04:46:40;;;;;;;;;36.60;30.00;;;;;5.46;50.61;98078.59;6185123;28;97499;-56
2020/12/10 04:49:43;;;;;;;;;33.60;30.60;;;;;4.89;50.67;97998.34;6185051;28;97607;-56
2020/12/10 04:52:45;;;;;;;;;38.75;32.25;;;;;5.53;51.09;98098.09;6169352;28;97393;-56
2020/12/10 04:55:47;;;;;;;;;41.00;33.00;;;;;5.73;50.64;98089.22;6160599;28;97015;-56
2020/12/10 04:58:48;;;;;;;;;38.25;32.00;;;;;5.84;50.27;98099.28;6160610;28;97287;-56
2020/12/10 05:01:49;;;;;;;;;40.50;32.00;;;;;5.95;50.09;98102.16;6160556;28;96744;-56
2020/12/10 05:04:54;;;;;;;;;32.80;29.80;;;;;5.99;49.84;98091.84;6161147;28;96485;-56
2020/12/10 05:07:57;;;;;;;;;37.60;30.40;;;;;6.05;49.72;98091.81;6181122;28;98761;-56
2020/12/10 05:10:59;;;;;;;;;44.60;32.80;;;;;5.72;49.98;98061.66;6184562;28;97513;-56
2020/12/10 05:14:01;;;;;;;;;41.80;33.00;;;;;5.99;49.92;98094.53;6183315;28;97703;-56
2020/12/10 05:17:14;;;;;;;;;40.40;32.20;;;;;5.92;50.02;98066.97;6170189;28;97341;-56
2020/12/10 05:20:16;;;;;;;;;42.80;33.00;;;;;6.00;49.94;98080.94;6160085;28;96590;-56
2020/12/10 05:23:37;;;;;;;;;42.20;33.00;;;;;5.97;49.62;98076.00;6160964;28;96950;-56
2020/12/10 05:26:39;;;;;;;;;42.00;32.00;;;;;6.02;49.70;98073.50;6160308;28;97473;-56
2020/12/10 05:29:41;;;;;;;;;38.40;32.80;;;;;6.11;49.82;98078.63;6161355;28;96989;-56
2020/12/10 05:32:43;;;;;;;;;36.80;32.00;;;;;5.96;49.94;98073.56;6179206;28;98249;-56
2020/12/10 05:35:45;;;;;;;;;36.50;29.50;;;;;5.93;49.81;98085.47;6163258;28;97676;-56
2020/12/10 05:39:02;;;;;;;;;34.00;30.00;;;;;6.04;49.82;98076.81;6176396;28;98433;-56
2020/12/10 05:42:06;;;;;;;;;37.25;29.00;;;;;6.12;49.93;98078.41;6177781;28;96554;-56
2020/12/10 05:45:14;;;;;;;;;37.75;27.25;;;;;6.17;49.74;98075.09;6184165;28;97269;-56
2020/12/10 05:48:19;;;;;;;;;36.40;29.40;;;;;5.94;49.53;98057.69;6187401;28;97334;-56
2020/12/10 05:51:22;;;;;;;;;32.00;29.00;;;;;6.11;49.78;98074.06;6188874;28;97296;-56
2020/12/10 05:54:26;;;;;;;;;36.60;30.00;;;;;6.11;49.65;98073.28;6174119;28;97514;-56
2020/12/10 05:57:27;;;;;;;;;36.00;30.00;;;;;6.13;49.64;98074.69;6162665;28;98217;-56
2020/12/10 06:00:29;;;;;;;;;34.20;28.20;;;;;6.05;50.22;98066.91;6178490;28;98124;-56
2020/12/10 06:03:35;;;;;;;;;40.00;32.00;;;;;6.02;49.66;98046.75;6184132;28;96754;-56
2020/12/10 06:06:37;;;;;;;;;37.80;30.20;;;;;6.07;49.56;98064.84;6173413;28;97501;-56
2020/12/10 06:09:41;;;;;;;;;36.00;30.00;;;;;6.14;49.72;98062.13;6188050;28;97400;-56
2020/12/10 06:12:50;;;;;;;;;31.00;25.20;;;;;6.09;49.70;98063.59;6186791;28;96995;-56
2020/12/10 06:15:51;;;;;;;;;34.40;30.00;;;;;5.79;49.83;98061.63;6182762;28;97431;-56
2020/12/10 06:19:03;;;;;;;;;34.20;28.80;;;;;5.90;50.17;98064.50;6186585;28;96914;-56
2020/12/10 06:22:34;;;;;;;;;32.00;28.75;;;;;5.78;50.41;98068.00;6188498;28;97193;-56
2020/12/10 06:25:35;;;;;;;;;36.60;30.00;;;;;5.53;50.37;98020.56;6163895;28;98499;-56
2020/12/10 06:28:37;;;;;;;;;37.00;31.00;;;;;5.88;50.14;98063.88;6172996;28;97119;-56
2020/12/10 06:32:02;;;;;;;;;36.50;30.25;;;;;5.95;50.14;98063.88;6163208;28;97400;-56
2020/12/10 06:35:05;;;;;;;;;34.60;30.00;;;;;5.96;49.86;98052.94;6163375;28;97422;-56
2020/12/10 06:38:07;;;;;;;;;38.00;32.00;;;;;5.92;49.95;98062.44;6178839;28;96604;-56
2020/12/10 06:41:09;;;;;;;;;35.00;30.00;;;;;5.71;50.59;98043.97;6169056;28;97033;-56
2020/12/10 06:44:31;;;;;;;;;32.00;27.00;;;;;5.73;50.31;98044.56;6187435;28;97431;-56
2020/12/10 06:47:41;;;;;;;;;30.60;27.60;;;;;5.74;50.43;98045.41;6176742;28;98638;-56
2020/12/10 06:50:44;;;;;;;;;35.60;29.80;;;;;5.73;50.55;98049.09;6169290;28;96849;-56
2020/12/10 06:54:00;;;;;;;;;31.00;29.00;;;;;5.92;49.75;98042.88;6173448;28;97337;-56
2020/12/10 06:57:07;;;;;;;;;32.00;29.40;;;;;5.77;50.10;98040.44;6183915;28;97127;-56
2020/12/10 07:00:08;;;;;;;;;33.00;29.40;;;;;5.85;50.30;98042.06;6160253;28;98113;-56
2020/12/10 07:03:23;;;;;;;;;35.20;29.40;;;;;5.93;50.08;98037.31;6178196;28;98611;-56
2020/12/10 07:06:25;;;;;;;;;29.60;26.40;;;;;6.00;49.62;98018.59;6162192;28;97017;-56
2020/12/10 07:09:27;;;;;;;;;33.80;30.20;;;;;6.01;49.28;97994.25;6169478;28;96639;-56
2020/12/10 07:12:36;;;;;;;;;27.40;25.60;;;;;6.09;49.43;98025.31;6169574;28;97248;-56
2020/12/10 07:15:38;;;;;;;;;33.50;29.25;;;;;6.20;49.45;98018.47;6162047;28;98764;-58
2020/12/10 07:18:39;;;;;;;;;31.40;28.00;;;;;6.25;49.12;98018.66;6194540;28;97207;-57
2020/12/10 07:21:41;;;;;;;;;31.20;26.40;;;;;6.25;49.47;98013.28;6194229;28;96994;-57
2020/12/10 07:24:42;;;;;;;;;30.40;27.40;;;;;6.33;49.58;98016.53;6193349;28;96538;-57
2020/12/10 07:27:44;;;;;;;;;27.00;24.00;;;;;6.42;49.12;98004.53;6185584;28;97207;-57
2020/12/10 07:30:47;;;;;;;;;28.40;25.40;;;;;6.54;48.98;97999.31;6188353;28;97273;-57
2020/12/10 07:33:54;;;;;;;;;28.00;24.00;;;;;6.19;48.71;97957.94;6198732;28;97299;-57
2020/12/10 07:36:56;;;;;;;;;28.60;24.60;;;;;6.54;49.11;97988.59;6188107;28;96993;-57
2020/12/10 07:40:10;;;;;;;;;25.00;22.60;;;;;6.47;49.09;97991.31;6199903;28;97004;-56
2020/12/10 07:43:11;;;;;;;;;29.00;25.00;;;;;6.56;48.81;97988.34;6197677;28;98577;-57
2020/12/10 07:46:14;;;;;;;;;30.40;25.00;;;;;6.63;48.74;98000.66;6194607;28;97095;-56
2020/12/10 07:49:33;;;;;;;;;27.60;26.00;;;;;6.74;48.47;97994.59;6192695;28;97000;-56
2020/12/10 07:52:43;;;;;;;;;27.75;24.00;;;;;6.81;48.11;97984.66;6185393;28;96842;-57
2020/12/10 07:55:54;;;;;;;;;27.40;25.60;;;;;6.80;48.04;97991.03;6184692;28;97239;-57
2020/12/10 07:59:14;;;;;;;;;26.00;24.00;;;;;6.60;48.10;97966.28;6192558;28;97651;-56
2020/12/10 08:02:32;;;;;;;;;29.00;25.00;;;;;6.77;48.05;97991.47;6196550;28;97425;-56
2020/12/10 08:05:35;;;;;;;;;29.25;25.00;;;;;6.77;47.91;97977.25;6172113;28;96885;-56
2020/12/10 08:08:42;;;;;;;;;31.20;29.00;;;;;6.89;48.00;97984.34;6192987;28;96844;-56
2020/12/10 08:12:04;;;;;;;;;29.00;25.00;;;;;6.93;48.19;97982.91;6196599;28;97051;-56
2020/12/10 08:15:08;;;;;;;;;31.00;26.60;;;;;6.94;47.71;97991.72;6201794;28;97437;-57
2020/12/10 08:18:12;;;;;;;;;27.60;24.00;;;;;6.77;48.12;97978.09;6179605;28;97598;-58
2020/12/10 08:21:30;;;;;;;;;31.00;28.40;;;;;6.83;47.73;97977.22;6170588;28;96856;-58
2020/12/10 08:24:42;;;;;;;;;30.40;26.00;;;;;6.82;48.54;97966.72;6172292;28;97671;-57
2020/12/10 08:27:44;;;;;;;;;29.25;25.75;;;;;6.78;48.02;97973.56;6173946;28;96822;-57
2020/12/10 08:30:52;;;;;;;;;26.40;23.40;;;;;6.39;48.10;97924.66;6185666;28;97181;-57
2020/12/10 08:33:58;;;;;;;;;27.60;24.60;;;;;6.59;48.56;97964.66;6201508;28;97431;-57
2020/12/10 08:37:09;;;;;;;;;26.40;25.40;;;;;6.55;48.81;97966.09;6188860;28;98277;-57
2020/12/10 08:40:11;;;;;;;;;27.00;23.00;;;;;6.49;49.13;97964.31;6178665;27;97908;-57
2020/12/10 08:43:16;;;;;;;;;27.60;26.00;;;;;6.61;49.22;97965.25;6191596;28;96576;-57
2020/12/10 08:46:19;;;;;;;;;28.00;26.00;;;;;6.60;49.24;97955.56;6192678;28;97177;-57
2020/12/10 08:49:21;;;;;;;;;32.00;25.00;;;;;6.57;48.82;97933.75;6182667;28;97642;-57
2020/12/10 08:52:52;;;;;;;;;30.25;26.00;;;;;6.82;48.38;97954.13;6173455;28;97519;-57
2020/12/10 08:55:57;;;;;;;;;30.33;26.00;;;;;6.89;48.37;97962.13;6185168;28;97558;-57
2020/12/10 08:58:58;;;;;;;;;26.75;24.00;;;;;6.91;47.96;97950.13;6184802;28;97357;-56
2020/12/10 09:02:00;;;;;;;;;25.40;22.40;;;;;6.88;48.11;97947.09;6180666;28;97503;-56
2020/12/10 09:05:02;;;;;;;;;28.00;24.00;;;;;6.82;48.28;97953.31;6181210;28;97482;-57
2020/12/10 09:08:04;;;;;;;;;26.75;25.00;;;;;6.82;48.05;97945.28;6180803;28;96829;-57
2020/12/10 09:11:08;;;;;;;;;25.00;22.00;;;;;6.95;48.28;97943.28;6182171;28;98013;-56
2020/12/10 09:14:25;;;;;;;;;23.00;21.80;;;;;7.01;47.84;97936.22;6179883;28;99750;-56
2020/12/10 09:17:27;;;;;;;;;22.75;20.00;;;;;6.95;47.57;97931.75;6202268;28;98513;-57
2020/12/10 09:20:29;;;;;;;;;22.40;21.00;;;;;6.89;48.39;97924.63;6178092;28;97510;-56
2020/12/10 09:23:43;;;;;;;;;22.80;21.80;;;;;6.98;48.13;97939.38;6175416;28;97234;-57
2020/12/10 09:26:46;;;;;;;;;21.50;20.00;;;;;6.99;48.11;97932.94;6160363;28;97322;-58
2020/12/10 09:29:48;;;;;;;;;24.60;22.60;;;;;7.15;48.45;97926.19;6182170;28;98497;-56
2020/12/10 09:32:51;;;;;;;;;24.00;22.60;;;;;7.26;47.41;97923.59;6182506;28;96845;-57
2020/12/10 09:35:53;;;;;;;;;25.00;23.00;;;;;7.27;47.36;97930.59;6164152;28;97445;-57
2020/12/10 09:38:54;;;;;;;;;21.00;20.00;;;;;7.31;47.52;97922.91;6181027;28;97177;-57
2020/12/10 09:41:56;;;;;;;;;24.00;20.60;;;;;7.34;47.13;97907.19;6180261;28;97888;-57
2020/12/10 09:45:00;;;;;;;;;29.40;24.00;;;;;7.52;47.20;97911.72;6181546;28;97413;-57
2020/12/10 09:48:04;;;;;;;;;19.75;19.25;;;;;7.62;47.07;97895.91;6180946;28;97411;-57
2020/12/10 09:51:06;;;;;;;;;26.50;23.00;;;;;7.54;46.45;97895.38;6167653;28;97512;-56
2020/12/10 09:54:20;;;;;;;;;24.60;23.00;;;;;7.59;46.82;97885.63;6203739;28;96997;-57
2020/12/10 10:00:33;;;;;;;;;23.00;20.00;;;;;7.72;46.58;97888.13;6164742;28;97478;-56
2020/12/10 10:03:40;;;;;;;;;23.20;19.00;;;;;7.83;46.03;97886.53;6187626;28;97780;-56
2020/12/10 10:06:44;;;;;;;;;25.00;23.00;;;;;7.74;47.12;97886.03;6186628;28;96809;-56
2020/12/10 10:09:46;;;;;;;;;21.60;20.00;;;;;7.30;46.33;97825.56;6182666;28;97080;-56
2020/12/10 10:12:48;;;;;;;;;24.00;23.00;;;;;7.73;46.40;97881.72;6200308;28;97383;-56
2020/12/10 10:15:52;;;;;;;;;20.20;19.20;;;;;7.55;46.44;97879.09;6184332;28;96554;-56
2020/12/10 10:18:59;;;;;;;;;23.60;21.80;;;;;7.74;46.36;97863.75;6198303;28;97863;-56
2020/12/10 10:22:00;;;;;;;;;22.60;19.00;;;;;7.73;46.13;97857.56;6185710;28;98170;-56
2020/12/10 10:25:02;;;;;;;;;23.33;20.00;;;;;7.75;46.24;97865.41;6191646;28;97526;-55
2020/12/10 10:28:11;;;;;;;;;21.60;20.00;;;;;7.54;46.60;97866.72;6182040;28;97711;-56
2020/12/10 10:31:12;;;;;;;;;22.00;20.00;;;;;7.50;47.01;97857.47;6208108;28;97340;-56
2020/12/10 10:34:15;;;;;;;;;26.00;21.40;;;;;7.39;47.52;97866.28;6207961;28;97464;-56
2020/12/10 10:37:17;;;;;;;;;23.40;20.80;;;;;7.37;47.53;97847.78;6188659;28;96556;-56
2020/12/10 10:40:19;;;;;;;;;24.00;22.00;;;;;7.36;47.49;97834.56;6187713;28;97022;-56
2020/12/10 10:43:22;;;;;;;;;24.00;19.60;;;;;7.40;47.68;97833.91;6186720;28;96929;-56
2020/12/10 10:46:46;;;;;;;;;22.67;21.00;;;;;7.39;47.85;97839.47;6186047;28;98607;-56
2020/12/10 10:49:50;;;;;;;;;24.20;21.40;;;;;7.30;47.48;97803.31;6182830;28;96673;-56
2020/12/10 10:52:51;;;;;;;;;26.00;22.00;;;;;7.49;47.71;97829.03;6185801;28;97457;-56
2020/12/10 10:55:53;;;;;;;;;22.00;20.00;;;;;7.45;47.78;97822.50;6207400;28;96526;-56
2020/12/10 10:58:54;;;;;;;;;27.00;22.60;;;;;7.41;47.90;97815.94;6204870;28;97164;-56
2020/12/10 11:01:57;;;;;;;;;23.00;22.00;;;;;7.30;47.83;97816.72;6168878;28;97610;-57
2020/12/10 11:05:01;;;;;;;;;22.00;20.00;;;;;7.45;47.56;97818.97;6167045;28;98584;-55
2020/12/10 11:08:10;;;;;;;;;22.40;21.00;;;;;7.40;47.76;97812.44;6167342;28;98469;-57
2020/12/10 11:11:12;;;;;;;;;22.00;21.00;;;;;7.41;47.68;97799.88;6183957;28;97321;-56
2020/12/10 11:14:13;;;;;;;;;24.00;22.00;;;;;7.53;47.60;97803.38;6183113;28;98755;-56
2020/12/10 11:17:15;;;;;;;;;23.80;21.80;;;;;7.29;47.82;97791.75;6183310;28;97092;-57
2020/12/10 11:20:16;;;;;;;;;26.40;24.00;;;;;7.48;47.67;97791.72;6184478;28;97045;-56
2020/12/10 11:23:19;;;;;;;;;26.67;22.67;;;;;7.37;47.58;97807.56;6171352;28;97502;-58
2020/12/10 11:26:28;;;;;;;;;23.25;19.75;;;;;7.44;47.82;97788.66;6185725;28;98853;-57
2020/12/10 11:29:30;;;;;;;;;25.00;22.00;;;;;7.49;47.80;97793.34;6185574;28;97098;-57
2020/12/10 11:32:33;;;;;;;;;28.00;22.80;;;;;7.40;48.01;97804.41;6186481;28;97426;-56
2020/12/10 11:35:34;;;;;;;;;25.40;23.00;;;;;7.24;48.01;97777.41;6205095;28;96841;-57
2020/12/10 11:38:36;;;;;;;;;25.60;22.00;;;;;7.45;47.94;97787.63;6207069;28;97517;-57
2020/12/10 11:41:38;;;;;;;;;23.00;22.00;;;;;7.56;47.80;97792.22;6178984;28;98055;-58
2020/12/10 11:44:42;;;;;;;;;23.60;22.00;;;;;7.39;47.74;97775.13;6184737;28;98846;-57
2020/12/10 11:47:46;;;;;;;;;21.00;20.20;;;;;7.40;47.96;97785.63;6171673;28;96640;-57
2020/12/10 11:50:47;;;;;;;;;26.33;24.33;;;;;7.52;47.74;97796.41;6185861;28;97082;-58
2020/12/10 11:53:49;;;;;;;;;26.80;23.80;;;;;7.67;47.87;97791.41;6184129;28;97483;-57
2020/12/10 11:56:57;;;;;;;;;26.40;23.60;;;;;7.71;47.69;97789.09;6173102;28;98584;-57
2020/12/10 12:00:20;;;;;;;;;23.50;22.50;;;;;7.62;47.87;97791.31;6186608;28;97475;-58
2020/12/10 12:03:25;;;;;;;;;28.00;25.00;;;;;7.48;47.92;97765.72;6186551;28;97079;-57
2020/12/10 12:06:27;;;;;;;;;23.60;23.20;;;;;7.65;47.96;97788.16;6185034;28;97583;-57
2020/12/10 12:09:29;;;;;;;;;24.75;22.50;;;;;7.55;48.12;97787.91;6181164;28;97420;-58
2020/12/10 12:12:50;;;;;;;;;23.00;20.00;;;;;7.53;48.14;97775.75;6203579;28;97048;-57
2020/12/10 12:15:52;;;;;;;;;27.80;24.00;;;;;7.54;48.22;97782.75;6196209;28;96530;-58
2020/12/10 12:18:55;;;;;;;;;24.00;20.00;;;;;7.42;48.27;97755.91;6183351;28;97262;-59
2020/12/10 12:22:00;;;;;;;;;24.20;20.40;;;;;7.67;48.36;97778.00;6174169;28;96987;-57
2020/12/10 12:25:25;;;;;;;;;23.00;20.00;;;;;7.80;48.01;97771.63;6165897;28;97610;-58
2020/12/10 12:28:30;;;;;;;;;26.60;25.40;;;;;7.82;47.95;97766.81;6170540;28;98554;-56
2020/12/10 12:31:33;;;;;;;;;30.80;25.00;;;;;7.75;48.08;97763.44;6169287;28;96959;-56
2020/12/10 12:34:39;;;;;;;;;28.75;23.25;;;;;7.71;47.97;97763.09;6169459;28;97477;-56
2020/12/10 12:37:41;;;;;;;;;30.00;26.00;;;;;7.81;47.99;97778.63;6170634;28;98703;-56
2020/12/10 12:40:46;;;;;;;;;29.50;26.75;;;;;7.73;48.28;97769.03;6162960;28;97504;-57
2020/12/10 12:43:52;;;;;;;;;25.00;22.40;;;;;7.78;48.12;97771.84;6165841;28;98113;-57
2020/12/10 12:47:14;;;;;;;;;29.00;26.00;;;;;7.77;48.16;97774.78;6178661;28;96857;-57
2020/12/10 12:50:15;;;;;;;;;28.40;24.40;;;;;7.83;48.16;97780.03;6179486;28;97442;-57
2020/12/10 12:53:49;;;;;;;;;25.00;24.00;;;;;7.89;47.92;97762.19;6155834;28;96924;-58
2020/12/10 12:57:11;;;;;;;;;27.40;24.00;;;;;7.85;48.17;97771.75;6154180;28;97635;-58
2020/12/10 13:00:12;;;;;;;;;28.25;24.25;;;;;7.81;48.07;97759.84;6116055;28;98113;-57
2020/12/10 13:03:14;;;;;;;;;27.00;24.60;;;;;7.90;48.39;97766.50;6112482;28;97560;-57
2020/12/10 13:06:16;;;;;;;;;26.00;22.40;;;;;7.90;48.11;97765.69;6131633;28;96990;-58
2020/12/10 13:09:18;;;;;;;;;26.60;24.00;;;;;7.96;48.06;97767.44;6130865;28;96637;-57
2020/12/10 13:12:20;;;;;;;;;28.60;26.60;;;;;7.91;48.29;97768.16;6131398;28;99329;-57
2020/12/10 13:15:22;;;;;;;;;28.50;25.50;;;;;7.66;48.50;97732.66;6115931;28;97054;-57
2020/12/10 13:18:24;;;;;;;;;30.40;25.40;;;;;8.05;48.03;97774.91;6161482;28;97253;-57
2020/12/10 13:21:33;;;;;;;;;27.20;23.60;;;;;7.97;48.09;97769.06;6156789;28;96977;-58
2020/12/10 13:24:38;;;;;;;;;27.00;25.00;;;;;7.91;48.08;97762.78;6176970;28;99101;-59
2020/12/10 13:27:41;;;;;;;;;31.20;25.20;;;;;8.05;48.21;97771.41;6159812;28;97362;-58
2020/12/10 13:31:11;;;;;;;;;29.40;25.40;;;;;8.14;48.14;97778.06;6180039;28;97479;-61
2020/12/10 13:34:12;;;;;;;;;27.00;24.40;;;;;8.21;47.89;97781.44;6157353;28;96693;-59
2020/12/10 13:37:14;;;;;;;;;27.00;25.00;;;;;8.26;47.79;97784.25;6179521;28;97124;-59
2020/12/10 13:40:18;;;;;;;;;25.00;23.00;;;;;8.12;47.75;97753.31;6177626;28;98391;-59
2020/12/10 13:43:40;;;;;;;;;24.00;22.00;;;;;8.32;47.66;97769.94;6161815;28;96578;-59
2020/12/10 13:46:49;;;;;;;;;26.75;24.00;;;;;8.33;47.66;97776.13;6163226;28;97495;-59
2020/12/10 13:49:52;;;;;;;;;28.60;25.40;;;;;8.28;47.55;97758.81;6148437;28;96889;-60
2020/12/10 13:52:53;;;;;;;;;22.00;20.00;;;;;8.38;47.62;97769.00;6136605;28;97561;-59
2020/12/10 13:55:55;;;;;;;;;28.00;25.00;;;;;8.39;47.58;97767.94;6152725;28;96823;-58
2020/12/10 13:58:57;;;;;;;;;27.60;23.00;;;;;8.40;47.49;97764.22;6156589;28;97170;-59
2020/12/10 14:02:05;;;;;;;;;27.00;25.00;;;;;8.50;47.34;97777.84;6165795;28;96836;-59
2020/12/10 14:05:26;;;;;;;;;31.00;26.40;;;;;8.50;47.44;97775.16;6162415;28;98519;-59
2020/12/10 14:08:44;;;;;;;;;29.60;24.60;;;;;8.48;47.46;97773.78;6153924;28;97631;-59
2020/12/10 14:11:54;;;;;;;;;28.80;24.80;;;;;8.40;47.54;97758.03;6152415;28;97223;-59
2020/12/10 14:14:55;;;;;;;;;31.80;29.40;;;;;8.42;47.54;97775.53;6156810;28;97496;-59
2020/12/10 14:18:19;;;;;;;;;29.00;25.75;;;;;8.52;47.50;97774.94;6135828;28;97714;-59
2020/12/10 14:21:23;;;;;;;;;27.60;24.00;;;;;8.54;47.66;97778.22;6084491;28;96767;-59